Time;durP1;ratioP1;P1;durP2;ratioP2;P2;SDS_P1;SDS_P2;PMS_P1;PMS_P2;Temp;Humidity;BMP_temperature;BMP_pressure;BME280_temperature;BME280_humidity;BME280_pressure;Samples;Min_cycle;Max_cycle;Signal;HPM_P1;HPM_P2
2021/01/27 00:00:28;;;;;;;3.13;2.15;;;-0.10;94.30;;;;;;5073679;28;20017;-75
2021/01/27 00:02:54;;;;;;;6.15;2.45;;;0.00;93.90;;;;;;5074055;28;20026;-75
2021/01/27 00:05:28;;;;;;;2.55;2.10;;;0.00;94.10;;;;;;5073550;28;20028;-75
2021/01/27 00:07:54;;;;;;;6.03;2.42;;;-0.10;93.60;;;;;;5055800;28;20407;-75
2021/01/27 00:10:20;;;;;;;8.32;2.53;;;-0.20;93.90;;;;;;5073604;28;20028;-75
2021/01/27 00:12:45;;;;;;;6.22;1.92;;;-0.20;93.80;;;;;;5073388;28;20060;-75
2021/01/27 00:15:22;;;;;;;8.02;2.65;;;-0.10;93.80;;;;;;5073317;28;20024;-75
2021/01/27 00:17:48;;;;;;;8.63;2.50;;;-0.10;93.60;;;;;;5073633;28;20066;-75
2021/01/27 00:20:16;;;;;;;4.57;2.53;;;0.00;93.70;;;;;;5073361;28;20476;-75
2021/01/27 00:22:42;;;;;;;5.65;2.00;;;0.00;93.00;;;;;;5073484;28;20035;-75
2021/01/27 00:25:09;;;;;;;7.97;2.30;;;0.10;93.30;;;;;;5055091;28;20029;-75
2021/01/27 00:27:34;;;;;;;6.38;2.08;;;0.20;93.20;;;;;;5073638;28;20020;-75
2021/01/27 00:30:00;;;;;;;6.63;2.10;;;0.30;92.90;;;;;;5038482;28;20025;-75
2021/01/27 00:32:28;;;;;;;8.40;2.95;;;0.50;93.10;;;;;;5073368;28;20053;-75
2021/01/27 00:34:54;;;;;;;2.17;1.92;;;0.50;92.30;;;;;;5073305;28;20074;-76
2021/01/27 00:37:22;;;;;;;8.02;2.10;;;0.40;91.30;;;;;;5073525;28;20433;-75
2021/01/27 00:39:48;;;;;;;4.22;2.00;;;0.30;91.70;;;;;;5072423;28;20025;-75
2021/01/27 00:42:13;;;;;;;5.32;1.85;;;0.20;91.50;;;;;;5073059;28;20507;-75
2021/01/27 00:44:39;;;;;;;4.55;1.90;;;0.20;92.10;;;;;;5054972;28;20043;-75
2021/01/27 00:47:05;;;;;;;7.47;2.33;;;0.20;91.30;;;;;;5072900;28;20534;-76
2021/01/27 00:49:30;;;;;;;2.95;2.55;;;0.10;91.50;;;;;;5073030;28;20044;-75
2021/01/27 00:51:56;;;;;;;6.22;2.08;;;0.10;91.80;;;;;;5038052;28;20025;-75
2021/01/27 00:54:22;;;;;;;3.90;2.30;;;0.20;91.90;;;;;;5073202;28;20056;-75
2021/01/27 00:56:47;;;;;;;5.38;2.47;;;0.10;91.30;;;;;;5072784;28;20028;-75
2021/01/27 00:59:13;;;;;;;7.47;2.15;;;0.00;91.40;;;;;;5073124;28;20025;-75
2021/01/27 01:01:39;;;;;;;7.65;1.95;;;-0.10;91.60;;;;;;5073171;28;20551;-75
2021/01/27 01:04:05;;;;;;;5.45;2.20;;;-0.10;92.00;;;;;;5055322;28;20028;-76
2021/01/27 01:06:31;;;;;;;4.45;2.00;;;0.10;92.10;;;;;;5072722;28;20032;-75
2021/01/27 01:08:57;;;;;;;4.97;1.95;;;0.10;91.60;;;;;;5055081;28;20044;-75
2021/01/27 01:11:23;;;;;;;10.55;2.50;;;0.10;91.40;;;;;;5054429;28;20028;-75
2021/01/27 01:13:49;;;;;;;7.72;2.58;;;0.00;91.70;;;;;;5054682;28;20091;-75
2021/01/27 01:16:14;;;;;;;4.10;2.05;;;0.10;91.30;;;;;;5037909;28;20028;-75
2021/01/27 01:18:40;;;;;;;4.63;2.20;;;0.10;91.30;;;;;;5072759;28;20028;-75
2021/01/27 01:21:06;;;;;;;3.15;2.13;;;0.00;91.00;;;;;;5072326;28;20431;-76
2021/01/27 01:23:32;;;;;;;7.35;2.08;;;0.10;91.40;;;;;;5054334;28;20040;-75
2021/01/27 01:25:57;;;;;;;4.10;2.30;;;0.10;91.10;;;;;;5072251;28;20033;-75
2021/01/27 01:28:23;;;;;;;8.80;1.92;;;0.10;90.70;;;;;;5037565;28;20025;-75
2021/01/27 01:30:49;;;;;;;4.55;2.28;;;0.00;90.40;;;;;;5054551;28;20116;-75
2021/01/27 01:33:18;;;;;;;4.18;2.40;;;0.10;90.70;;;;;;5053953;28;20040;-75
2021/01/27 01:35:45;;;;;;;3.72;1.77;;;0.10;90.60;;;;;;5054142;28;20024;-75
2021/01/27 01:38:11;;;;;;;7.22;2.03;;;0.20;90.50;;;;;;5053934;28;20396;-75
2021/01/27 01:41:00;;;;;;;10.90;1.95;;;0.20;90.00;;;;;;5072091;28;20021;-75
2021/01/27 01:43:29;;;;;;;4.30;1.98;;;0.20;90.10;;;;;;5071708;28;20024;-74
2021/01/27 01:46:03;;;;;;;5.18;1.98;;;0.20;90.40;;;;;;5071687;28;20047;-74
2021/01/27 01:48:40;;;;;;;4.18;1.90;;;0.10;90.20;;;;;;5053917;28;20032;-74
2021/01/27 01:51:20;;;;;;;3.95;1.77;;;-0.10;90.20;;;;;;5072026;28;20031;-74
2021/01/27 01:53:51;;;;;;;8.65;3.67;;;-0.20;90.70;;;;;;5071921;28;20552;-74
2021/01/27 01:56:23;;;;;;;5.05;2.63;;;0.00;91.00;;;;;;5071616;28;20024;-74
2021/01/27 01:58:52;;;;;;;1.85;1.45;;;0.00;90.30;;;;;;5071297;28;20024;-74
2021/01/27 02:01:20;;;;;;;3.92;2.05;;;-0.10;90.50;;;;;;5053792;28;20035;-74
2021/01/27 02:03:48;;;;;;;6.28;1.90;;;-0.10;90.40;;;;;;5071393;28;20095;-74
2021/01/27 02:06:15;;;;;;;6.60;1.73;;;-0.20;90.40;;;;;;5053392;28;20074;-74
2021/01/27 02:08:53;;;;;;;2.45;1.83;;;-0.20;90.70;;;;;;5071301;28;20203;-74
2021/01/27 02:11:29;;;;;;;4.85;1.85;;;-0.30;90.50;;;;;;5071535;28;20028;-74
2021/01/27 02:14:18;;;;;;;2.92;1.95;;;-0.30;90.70;;;;;;5128637;23;20036;-74
2021/01/27 02:17:03;;;;;;;3.33;1.73;;;-0.30;91.00;;;;;;5051596;28;20024;-75
2021/01/27 02:19:50;;;;;;;5.18;1.65;;;-0.30;90.90;;;;;;5053560;28;20016;-74
2021/01/27 02:23:00;;;;;;;3.72;1.90;;;-0.30;90.40;;;;;;5071477;28;20032;-74
2021/01/27 02:25:38;;;;;;;4.32;1.85;;;-0.20;90.50;;;;;;5070891;28;20028;-74
2021/01/27 02:28:08;;;;;;;2.47;1.42;;;-0.20;90.20;;;;;;5036757;28;20054;-74
2021/01/27 02:30:43;;;;;;;5.28;1.65;;;-0.30;90.60;;;;;;5070901;28;20090;-73
2021/01/27 02:33:17;;;;;;;2.83;1.77;;;-0.30;90.30;;;;;;5070938;28;20024;-74
2021/01/27 02:35:58;;;;;;;1.95;1.77;;;-0.20;90.50;;;;;;5052767;28;20020;-74
2021/01/27 02:38:40;;;;;;;2.30;1.40;;;-0.20;90.50;;;;;;5053288;28;20029;-75
2021/01/27 02:41:12;;;;;;;;;;;-0.20;90.20;;;;;;5036648;28;20017;-74
2021/01/27 02:43:43;;;;;;;4.47;1.67;;;-0.30;90.50;;;;;;5071033;28;19911;-74
2021/01/27 02:46:33;;;;;;;2.13;1.70;;;-0.30;90.60;;;;;;5071149;28;20036;-73
2021/01/27 02:49:09;;;;;;;4.80;1.63;;;-0.30;90.80;;;;;;5071395;28;20028;-74
2021/01/27 02:51:49;;;;;;;5.32;2.17;;;-0.30;90.50;;;;;;5070746;28;20021;-74
2021/01/27 02:54:23;;;;;;;4.22;1.98;;;-0.20;91.00;;;;;;5052907;28;20119;-74
2021/01/27 02:57:03;;;;;;;4.40;1.90;;;-0.30;90.50;;;;;;5052558;28;20063;-74
2021/01/27 02:59:35;;;;;;;8.30;1.63;;;-0.40;90.00;;;;;;5052558;28;20047;-74
2021/01/27 03:02:11;;;;;;;3.35;1.63;;;-0.40;90.30;;;;;;5035403;28;20036;-73
2021/01/27 03:04:42;;;;;;;3.13;1.90;;;-0.40;90.20;;;;;;5052721;28;20051;-74
2021/01/27 03:07:11;;;;;;;5.47;1.17;;;-0.30;90.30;;;;;;5035906;28;20036;-74
2021/01/27 03:09:49;;;;;;;1.83;1.55;;;-0.40;89.80;;;;;;5070772;28;20026;-74
2021/01/27 03:12:15;;;;;;;2.42;1.45;;;-0.40;89.50;;;;;;5052237;28;20025;-74
2021/01/27 03:14:41;;;;;;;3.95;1.90;;;-0.50;90.00;;;;;;5052482;28;20044;-73
2021/01/27 03:17:13;;;;;;;2.67;1.70;;;-0.60;89.80;;;;;;5052501;28;20028;-74
2021/01/27 03:20:00;;;;;;;2.30;1.27;;;-0.60;89.90;;;;;;5052456;28;20479;-75
2021/01/27 03:22:34;;;;;;;2.47;1.48;;;-0.70;89.30;;;;;;5070170;28;20031;-74
2021/01/27 03:25:12;;;;;;;6.47;1.88;;;-0.70;89.60;;;;;;5052226;28;20444;-75
2021/01/27 03:27:50;;;;;;;1.92;1.75;;;-0.90;89.70;;;;;;5035557;28;20021;-73
2021/01/27 03:30:16;;;;;;;2.65;1.60;;;-0.90;90.00;;;;;;5070464;28;20032;-75
2021/01/27 03:32:57;;;;;;;4.10;1.88;;;-1.00;89.30;;;;;;5070008;28;20031;-74
2021/01/27 03:35:37;;;;;;;4.95;1.60;;;-1.00;88.70;;;;;;5070270;28;20020;-75
2021/01/27 03:38:32;;;;;;;4.88;1.67;;;-0.90;89.10;;;;;;5052049;28;20392;-73
2021/01/27 03:41:05;;;;;;;3.40;1.63;;;-0.90;89.20;;;;;;5063348;28;20040;-74
2021/01/27 03:43:36;;;;;;;3.97;1.88;;;-0.80;88.40;;;;;;5069946;28;20021;-75
2021/01/27 03:46:16;;;;;;;2.95;1.35;;;-0.90;87.90;;;;;;5070113;28;20043;-74
2021/01/27 03:49:00;;;;;;;3.00;1.50;;;-1.00;87.60;;;;;;5069989;28;20021;-73
2021/01/27 03:51:32;;;;;;;5.07;1.40;;;-1.10;88.60;;;;;;5052079;28;20115;-74
2021/01/27 03:54:02;;;;;;;3.25;1.92;;;-1.20;89.10;;;;;;5070042;28;20028;-75
2021/01/27 03:56:47;;;;;;;38.17;5.38;;;-1.20;89.30;;;;;;5051991;28;20016;-74
2021/01/27 03:59:13;;;;;;;4.43;1.70;;;-1.20;89.10;;;;;;5051764;28;20096;-74
2021/01/27 04:01:50;;;;;;;3.05;1.40;;;-1.20;88.60;;;;;;5070137;28;20069;-73
2021/01/27 04:04:16;;;;;;;2.05;1.35;;;-1.20;88.70;;;;;;5069571;28;20036;-74
2021/01/27 04:06:42;;;;;;;2.95;1.40;;;-1.20;88.60;;;;;;5070347;28;20099;-74
2021/01/27 04:09:09;;;;;;;2.42;1.40;;;-1.30;88.90;;;;;;5052003;28;20103;-74
2021/01/27 04:11:35;;;;;;;4.78;1.40;;;-1.40;88.80;;;;;;5035369;28;20088;-74
2021/01/27 04:14:01;;;;;;;1.80;1.38;;;-1.30;88.90;;;;;;5053514;28;20609;-74
2021/01/27 04:16:27;;;;;;;1.67;1.58;;;-1.30;89.30;;;;;;5039056;28;20032;-73
2021/01/27 04:18:53;;;;;;;2.58;1.27;;;-1.30;88.20;;;;;;5073596;28;20028;-72
2021/01/27 04:21:19;;;;;;;1.88;1.17;;;-1.20;88.50;;;;;;5055851;28;20028;-73
2021/01/27 04:23:44;;;;;;;3.10;1.20;;;-1.30;87.90;;;;;;5073543;28;20498;-74
2021/01/27 04:26:10;;;;;;;2.83;1.38;;;-1.30;88.10;;;;;;5073667;28;20032;-73
2021/01/27 04:28:36;;;;;;;6.57;1.38;;;-1.30;88.00;;;;;;5073583;28;20442;-74
2021/01/27 04:31:01;;;;;;;2.30;1.30;;;-1.30;87.90;;;;;;5073510;28;20025;-73
2021/01/27 04:33:27;;;;;;;3.08;1.30;;;-1.30;87.60;;;;;;5074348;28;20017;-74
2021/01/27 04:35:53;;;;;;;5.15;1.98;;;-1.30;87.80;;;;;;5055851;28;20355;-74
2021/01/27 04:38:19;;;;;;;2.10;1.45;;;-1.40;87.70;;;;;;5055942;28;20020;-74
2021/01/27 04:40:46;;;;;;;2.67;1.33;;;-1.40;88.70;;;;;;5073383;28;20027;-74
2021/01/27 04:43:19;;;;;;;1.10;0.98;;;-1.50;88.30;;;;;;5073351;28;20032;-73
2021/01/27 04:45:54;;;;;;;2.10;1.35;;;-1.40;88.80;;;;;;5055134;28;20052;-73
2021/01/27 04:48:31;;;;;;;3.50;1.77;;;-1.40;88.70;;;;;;5055355;28;20059;-74
2021/01/27 04:51:01;;;;;;;2.92;1.58;;;-1.40;88.10;;;;;;5055199;28;20437;-74
2021/01/27 04:53:43;;;;;;;3.03;1.30;;;-1.40;88.60;;;;;;5055117;28;20024;-73
2021/01/27 04:56:12;;;;;;;;;;;-1.40;89.00;;;;;;5038509;28;20017;-74
2021/01/27 04:59:07;;;;;;;5.30;1.42;;;-1.40;89.70;;;;;;5054617;28;19904;-74
2021/01/27 05:01:52;;;;;;;3.42;1.20;;;-1.40;89.40;;;;;;5064059;28;20040;-74
2021/01/27 05:04:43;;;;;;;2.30;1.40;;;-1.50;89.40;;;;;;5072605;28;20052;-72
2021/01/27 05:07:14;;;;;;;2.80;1.30;;;-1.50;90.00;;;;;;5054608;28;20021;-73
2021/01/27 05:09:45;;;;;;;;;;;-1.60;90.00;;;;;;5074331;28;20074;-75
2021/01/27 05:12:12;;;;;;;2.92;1.73;;;-1.50;90.20;;;;;;5055019;28;19908;-73
2021/01/27 05:14:39;;;;;;;2.78;1.77;;;-1.50;90.20;;;;;;5072582;28;20052;-74
2021/01/27 05:17:10;;;;;;;5.43;1.50;;;-1.40;90.50;;;;;;5054150;28;20048;-74
2021/01/27 05:19:37;;;;;;;5.78;1.75;;;-1.40;88.70;;;;;;5072512;28;20549;-74
2021/01/27 05:22:06;;;;;;;6.90;1.80;;;-1.50;89.30;;;;;;5072325;28;20033;-74
2021/01/27 05:24:32;;;;;;;15.48;6.22;;;-1.70;89.00;;;;;;5071940;28;20028;-74
2021/01/27 05:26:59;;;;;;;2.88;2.22;;;-1.80;89.10;;;;;;5072061;28;20031;-75
2021/01/27 05:29:32;;;;;;;2.88;1.73;;;-1.80;90.00;;;;;;5054219;28;20048;-74
2021/01/27 05:32:15;;;;;;;4.78;1.63;;;-2.00;88.60;;;;;;5072172;28;20028;-74
2021/01/27 05:34:43;;;;;;;11.80;2.33;;;-2.10;88.70;;;;;;5054759;28;20051;-74
2021/01/27 05:37:12;;;;;;;9.60;3.22;;;-2.40;88.90;;;;;;5054028;28;20029;-74
2021/01/27 05:39:40;;;;;;;2.88;1.80;;;-2.40;90.00;;;;;;5054055;28;20388;-74
2021/01/27 05:42:28;;;;;;;14.95;1.92;;;-2.40;90.30;;;;;;5053844;28;20028;-74
2021/01/27 05:45:15;;;;;;;7.78;2.05;;;-2.30;90.60;;;;;;5072202;28;20021;-75
2021/01/27 05:47:40;;;;;;;7.72;1.90;;;-2.40;90.00;;;;;;5071594;28;20075;-74
2021/01/27 05:50:33;;;;;;;9.02;2.88;;;-2.50;90.40;;;;;;5037289;28;20024;-73
2021/01/27 05:53:12;;;;;;;8.30;2.08;;;-2.60;90.60;;;;;;5053671;28;20112;-74
2021/01/27 05:55:59;;;;;;;3.40;1.88;;;-2.50;90.70;;;;;;5071579;28;20262;-74
2021/01/27 05:58:26;;;;;;;12.52;4.28;;;-2.40;90.50;;;;;;5053416;28;20024;-74
2021/01/27 06:00:52;;;;;;;7.45;2.95;;;-2.30;90.70;;;;;;5071688;28;20095;-74
2021/01/27 06:03:22;;;;;;;5.05;2.60;;;-2.30;91.20;;;;;;5071705;28;20028;-75
2021/01/27 06:05:48;;;;;;;9.88;1.88;;;-2.00;92.30;;;;;;5071740;28;20032;-74
2021/01/27 06:08:21;;;;;;;6.03;1.88;;;-1.80;92.10;;;;;;5053504;28;20028;-74
2021/01/27 06:10:48;;;;;;;7.60;2.17;;;-1.50;92.70;;;;;;5053812;28;20355;-74
2021/01/27 06:13:25;;;;;;;1.92;1.73;;;-1.40;92.10;;;;;;5054154;28;20449;-74
2021/01/27 06:15:51;;;;;;;5.20;2.45;;;-1.60;91.50;;;;;;5071927;28;20162;-73
2021/01/27 06:18:29;;;;;;;6.80;2.35;;;-1.50;92.40;;;;;;5053473;28;20029;-74
2021/01/27 06:21:30;;;;;;;4.65;2.10;;;-1.50;92.40;;;;;;5071434;28;20437;-74
2021/01/27 06:24:05;;;;;;;13.07;2.20;;;-1.40;91.80;;;;;;5053242;28;20028;-74
2021/01/27 06:26:52;;;;;;;13.88;2.45;;;-1.50;91.50;;;;;;5071240;28;20020;-74
2021/01/27 06:29:58;;;;;;;3.70;2.20;;;-1.70;91.90;;;;;;5036457;28;20116;-74
2021/01/27 06:32:36;;;;;;;15.60;3.28;;;-1.70;93.20;;;;;;5045306;28;20492;-74
2021/01/27 06:35:20;;;;;;;16.75;3.38;;;-1.60;92.80;;;;;;5052594;28;20017;-74
2021/01/27 06:38:23;;;;;;;7.50;3.15;;;-1.60;93.00;;;;;;5070195;28;20016;-73
2021/01/27 06:41:20;;;;;;;12.57;3.33;;;-1.50;93.40;;;;;;5039783;28;20036;-74
2021/01/27 06:44:17;;;;;;;5.00;2.42;;;-1.60;93.10;;;;;;5070781;28;20025;-74
2021/01/27 06:46:42;;;;;;;7.78;2.78;;;-1.80;92.00;;;;;;5036329;28;20028;-74
2021/01/27 06:49:41;;;;;;;8.55;2.40;;;-2.00;92.40;;;;;;5070836;28;20027;-74
2021/01/27 06:52:30;;;;;;;9.55;3.08;;;-2.10;92.50;;;;;;5070689;28;20067;-73
2021/01/27 06:55:04;;;;;;;8.95;4.68;;;-2.10;93.30;;;;;;5052480;28;20102;-73
2021/01/27 06:57:44;;;;;;;9.73;2.92;;;-2.20;92.50;;;;;;5070659;28;20025;-74
2021/01/27 07:00:31;;;;;;;10.32;3.15;;;-2.10;93.10;;;;;;5070409;28;20020;-74
2021/01/27 07:03:17;;;;;;;35.72;6.30;;;-1.90;93.70;;;;;;5052640;28;20028;-74
2021/01/27 07:05:42;;;;;;;10.93;1.75;;;-1.60;93.30;;;;;;5070109;28;20044;-74
2021/01/27 07:08:10;;;;;;;4.65;1.70;;;-1.50;92.60;;;;;;5070475;28;20031;-74
2021/01/27 07:10:38;;;;;;;5.57;1.65;;;-1.60;92.00;;;;;;5070252;28;20035;-74
2021/01/27 07:13:32;;;;;;;4.95;1.90;;;-1.50;92.20;;;;;;5051296;28;20048;-73
2021/01/27 07:16:09;;;;;;;5.38;2.80;;;-1.30;92.40;;;;;;5032341;28;20025;-74
2021/01/27 07:19:12;;;;;;;7.00;3.08;;;-1.20;92.50;;;;;;5015990;28;20484;-73
2021/01/27 07:21:52;;;;;;;5.15;1.98;;;-1.20;92.10;;;;;;5032184;28;20075;-74
2021/01/27 07:24:25;;;;;;;3.20;1.83;;;-1.10;91.80;;;;;;5050435;28;20032;-74
2021/01/27 07:27:00;;;;;;;12.55;3.97;;;-1.10;91.60;;;;;;5050143;28;20025;-74
2021/01/27 07:29:52;;;;;;;5.03;2.92;;;-1.20;92.30;;;;;;5050610;28;20029;-75
2021/01/27 07:32:36;;;;;;;7.55;2.85;;;-1.20;91.90;;;;;;5035483;28;20039;-74
2021/01/27 07:35:06;;;;;;;5.57;2.63;;;-1.30;91.80;;;;;;5052137;28;20111;-73
2021/01/27 07:37:57;;;;;;;18.08;4.10;;;-1.20;92.30;;;;;;5070091;28;20021;-74
2021/01/27 07:40:28;;;;;;;11.57;1.92;;;-1.10;91.90;;;;;;5052481;28;20361;-74
2021/01/27 07:43:07;;;;;;;7.80;2.65;;;-1.10;91.50;;;;;;5070046;28;20020;-74
2021/01/27 07:45:37;;;;;;;8.93;2.78;;;-1.10;91.60;;;;;;5069849;28;20029;-75
2021/01/27 07:48:21;;;;;;;6.85;2.05;;;-1.00;91.60;;;;;;5051975;28;20025;-74
2021/01/27 07:51:18;;;;;;;4.55;2.97;;;-0.90;90.90;;;;;;5045108;28;20428;-75
2021/01/27 07:53:47;;;;;;;15.55;2.60;;;-0.90;91.10;;;;;;5072282;28;20048;-74
2021/01/27 07:56:29;;;;;;;8.10;2.10;;;-0.80;91.20;;;;;;5073031;28;20016;-74
2021/01/27 07:59:11;;;;;;;7.50;2.03;;;-0.90;91.20;;;;;;5073562;28;20021;-74
2021/01/27 08:01:46;;;;;;;9.95;3.15;;;-0.90;91.00;;;;;;5055344;28;20024;-74
2021/01/27 08:04:44;;;;;;;7.95;3.03;;;-0.60;91.30;;;;;;5072788;28;20043;-73
2021/01/27 08:07:26;;;;;;;13.13;2.80;;;-0.70;90.80;;;;;;5025582;28;20024;-73
2021/01/27 08:09:53;;;;;;;5.68;2.58;;;-0.80;90.60;;;;;;5055058;28;20384;-73
2021/01/27 08:15:02;;;;;;;9.38;3.75;;;-0.60;90.30;;;;;;5068587;28;20067;-75
2021/01/27 08:17:46;;;;;;;5.00;1.60;;;-0.40;88.50;;;;;;5071349;28;20021;-75
2021/01/27 08:20:34;;;;;;;10.57;1.73;;;-0.30;89.10;;;;;;5059185;28;20347;-75
2021/01/27 08:23:07;;;;;;;4.63;1.80;;;-0.20;87.70;;;;;;5042612;28;20020;-75
2021/01/27 08:25:50;;;;;;;15.02;2.45;;;0.00;87.00;;;;;;5052936;28;20075;-75
2021/01/27 08:28:36;;;;;;;2.45;1.95;;;0.20;87.50;;;;;;5042829;28;20028;-75
2021/01/27 08:31:08;;;;;;;3.63;1.88;;;0.30;84.50;;;;;;5048294;28;20510;-75
2021/01/27 08:33:45;;;;;;;5.13;1.83;;;0.20;85.80;;;;;;5061567;28;20029;-75
2021/01/27 08:36:28;;;;;;;7.70;2.22;;;0.20;84.80;;;;;;5018517;28;20040;-75
2021/01/27 08:38:56;;;;;;;3.13;1.75;;;0.30;83.80;;;;;;5061749;28;20059;-75
2021/01/27 08:41:44;;;;;;;3.85;2.03;;;0.30;83.20;;;;;;5039246;28;20078;-75
2021/01/27 08:44:29;;;;;;;5.20;2.38;;;0.50;84.70;;;;;;5057286;28;20094;-76
2021/01/27 08:47:18;;;;;;;5.07;1.90;;;0.70;84.70;;;;;;5057356;28;20025;-75
2021/01/27 08:49:51;;;;;;;2.47;1.77;;;0.80;84.20;;;;;;5039658;28;20362;-75
2021/01/27 08:52:17;;;;;;;7.82;1.73;;;0.90;83.80;;;;;;5027987;28;20053;-75
2021/01/27 08:54:44;;;;;;;7.50;1.90;;;0.80;82.40;;;;;;5061850;28;20049;-75
2021/01/27 08:57:36;;;;;;;2.45;1.92;;;0.40;82.40;;;;;;5065571;28;20021;-75
2021/01/27 09:00:21;;;;;;;;;;;0.30;85.20;;;;;;5052342;28;20068;-75
2021/01/27 09:03:02;;;;;;;4.30;1.55;;;0.50;85.60;;;;;;5061832;28;19905;-75
2021/01/27 09:05:29;;;;;;;10.68;2.30;;;0.70;84.30;;;;;;5061558;28;20317;-75
2021/01/27 09:08:01;;;;;;;2.97;1.70;;;1.00;84.50;;;;;;5040977;28;20026;-75
2021/01/27 09:10:29;;;;;;;2.67;1.70;;;1.00;82.80;;;;;;5060745;28;20065;-75
2021/01/27 09:12:55;;;;;;;2.55;1.65;;;0.80;82.40;;;;;;5060625;28;20120;-75
2021/01/27 09:15:29;;;;;;;10.05;1.83;;;0.70;83.40;;;;;;5042549;28;20124;-74
2021/01/27 09:17:59;;;;;;;2.67;1.58;;;0.80;82.70;;;;;;5055051;28;20032;-74
2021/01/27 09:20:31;;;;;;;3.05;1.80;;;1.00;82.00;;;;;;5037804;28;20440;-74
2021/01/27 09:23:02;;;;;;;4.30;2.08;;;1.10;81.80;;;;;;5028731;28;20031;-74
2021/01/27 09:25:29;;;;;;;3.35;1.90;;;1.30;81.60;;;;;;5043547;28;20074;-73
2021/01/27 09:28:09;;;;;;;2.38;1.42;;;1.50;80.20;;;;;;5061166;28;20085;-73
2021/01/27 09:30:36;;;;;;;5.03;1.38;;;1.40;79.00;;;;;;5051408;28;20036;-73
2021/01/27 09:33:17;;;;;;;1.58;1.42;;;1.20;79.40;;;;;;5059060;28;20024;-74
2021/01/27 09:35:45;;;;;;;7.03;2.30;;;1.20;80.50;;;;;;5023295;28;20078;-74
2021/01/27 09:38:20;;;;;;;6.45;1.75;;;1.50;80.80;;;;;;5040906;28;20031;-74
2021/01/27 09:40:50;;;;;;;6.10;2.08;;;1.50;80.00;;;;;;5023285;28;20028;-77
2021/01/27 09:43:21;;;;;;;10.60;2.15;;;1.70;81.30;;;;;;5039617;28;20086;-75
2021/01/27 09:45:49;;;;;;;7.45;2.35;;;1.80;80.40;;;;;;5066414;28;20468;-75
2021/01/27 09:48:18;;;;;;;10.43;2.35;;;1.90;80.50;;;;;;5058892;28;20032;-75
2021/01/27 09:50:53;;;;;;;7.05;2.35;;;2.00;79.80;;;;;;5066359;28;20081;-75
2021/01/27 09:53:24;;;;;;;3.50;2.15;;;2.10;79.20;;;;;;5044672;28;20021;-75
2021/01/27 09:55:51;;;;;;;2.97;2.05;;;2.10;79.10;;;;;;5061221;28;20021;-75
2021/01/27 09:58:17;;;;;;;7.68;1.83;;;2.00;77.20;;;;;;5042622;28;20031;-75
2021/01/27 10:00:42;;;;;;;7.65;2.35;;;2.40;78.70;;;;;;5060812;28;20107;-75
2021/01/27 10:03:32;;;;;;;10.15;3.00;;;2.70;78.40;;;;;;5065039;28;20033;-75
2021/01/27 10:06:00;;;;;;;20.20;5.05;;;3.10;78.40;;;;;;5059834;28;20045;-74
2021/01/27 10:08:40;;;;;;;11.85;2.97;;;2.90;75.90;;;;;;5059319;28;20078;-75
2021/01/27 10:11:09;;;;;;;12.30;2.28;;;2.70;76.80;;;;;;5044188;28;20043;-75
2021/01/27 10:13:37;;;;;;;2.63;1.60;;;2.80;76.30;;;;;;5042549;28;20036;-75
2021/01/27 10:16:08;;;;;;;3.53;2.00;;;2.60;75.50;;;;;;5050971;28;20032;-75
2021/01/27 10:18:36;;;;;;;2.92;1.70;;;2.60;76.10;;;;;;5055329;28;20029;-75
2021/01/27 10:21:12;;;;;;;4.07;1.70;;;2.70;76.70;;;;;;5046265;28;20032;-75
2021/01/27 10:23:42;;;;;;;7.20;2.28;;;2.80;75.70;;;;;;5052121;28;20033;-75
2021/01/27 10:26:29;;;;;;;11.25;2.10;;;2.80;76.20;;;;;;5018927;28;20107;-75
2021/01/27 10:29:12;;;;;;;9.23;2.45;;;2.60;76.40;;;;;;5057768;28;20046;-75
2021/01/27 10:31:38;;;;;;;4.53;1.70;;;2.60;76.60;;;;;;5042713;28;20029;-75
2021/01/27 10:34:04;;;;;;;5.68;2.40;;;2.50;75.30;;;;;;5056120;28;20020;-74
2021/01/27 10:36:39;;;;;;;45.83;8.75;;;2.40;76.10;;;;;;5064515;28;20017;-75
2021/01/27 10:39:19;;;;;;;6.45;2.00;;;2.60;77.40;;;;;;5049798;28;20024;-74
2021/01/27 10:42:08;;;;;;;60.53;4.60;;;2.60;75.10;;;;;;5054177;28;20010;-75
2021/01/27 10:44:39;;;;;;;13.77;2.45;;;3.10;75.70;;;;;;5040369;28;20032;-74
2021/01/27 10:47:08;;;;;;;105.70;6.53;;;3.60;75.20;;;;;;5040517;28;20033;-74
2021/01/27 10:49:39;;;;;;;30.50;3.92;;;3.60;72.70;;;;;;5060006;28;20356;-74
2021/01/27 10:52:07;;;;;;;7.40;2.60;;;4.10;75.20;;;;;;5038020;28;20035;-74
2021/01/27 10:54:33;;;;;;;23.02;2.80;;;4.50;72.30;;;;;;5055841;28;20025;-74
2021/01/27 10:56:59;;;;;;;15.98;2.47;;;5.00;70.70;;;;;;5060073;28;20442;-74
2021/01/27 10:59:25;;;;;;;14.88;2.90;;;5.40;68.90;;;;;;5041804;28;20025;-74
2021/01/27 11:01:51;;;;;;;10.10;2.10;;;5.70;67.80;;;;;;5034810;28;20113;-74
2021/01/27 11:04:19;;;;;;;7.47;1.65;;;5.50;65.50;;;;;;5040563;28;20243;-74
2021/01/27 11:06:45;;;;;;;22.73;2.80;;;5.30;65.50;;;;;;5053634;28;20078;-74
2021/01/27 11:09:11;;;;;;;27.35;2.58;;;5.10;69.70;;;;;;5056213;28;20035;-74
2021/01/27 11:11:38;;;;;;;27.30;3.90;;;4.80;69.50;;;;;;5056655;28;20029;-74
2021/01/27 11:14:05;;;;;;;9.25;3.08;;;4.60;70.50;;;;;;5044981;28;20029;-74
2021/01/27 11:16:31;;;;;;;18.38;3.13;;;4.60;72.00;;;;;;5068499;28;20028;-74
2021/01/27 11:18:57;;;;;;;17.38;3.65;;;4.50;71.10;;;;;;5050203;28;20392;-74
2021/01/27 11:21:23;;;;;;;7.20;2.72;;;4.30;71.10;;;;;;5041362;28;20146;-74
2021/01/27 11:23:48;;;;;;;12.25;2.10;;;3.90;70.90;;;;;;5054011;28;20028;-74
2021/01/27 11:26:21;;;;;;;14.43;2.08;;;3.60;71.20;;;;;;5056917;28;20028;-74
2021/01/27 11:28:51;;;;;;;22.92;2.83;;;3.60;73.30;;;;;;5054492;28;20034;-74
2021/01/27 11:31:18;;;;;;;4.25;1.73;;;3.60;72.50;;;;;;5030191;28;20060;-74
2021/01/27 11:33:47;;;;;;;7.75;1.77;;;3.40;71.80;;;;;;5049308;28;20380;-74
2021/01/27 11:36:17;;;;;;;2.40;1.67;;;3.30;70.70;;;;;;5051213;28;20496;-74
2021/01/27 11:38:44;;;;;;;5.40;1.92;;;2.70;70.40;;;;;;5036247;28;20025;-74
2021/01/27 11:41:10;;;;;;;6.20;1.90;;;2.30;72.00;;;;;;5055799;28;20024;-74
2021/01/27 11:43:38;;;;;;;4.63;2.85;;;2.10;73.10;;;;;;5055637;28;20025;-74
2021/01/27 11:46:04;;;;;;;4.88;2.60;;;1.90;73.60;;;;;;5034307;28;20033;-74
2021/01/27 11:48:31;;;;;;;4.90;1.85;;;1.90;74.50;;;;;;5058653;28;20565;-74
2021/01/27 11:50:57;;;;;;;7.82;2.28;;;1.80;73.40;;;;;;5050120;28;20115;-74
2021/01/27 11:53:22;;;;;;;2.78;1.60;;;1.80;73.90;;;;;;5040632;28;20295;-74
2021/01/27 11:55:49;;;;;;;2.60;1.58;;;1.90;75.60;;;;;;5024025;28;20032;-74
2021/01/27 11:58:15;;;;;;;7.35;2.00;;;2.00;74.20;;;;;;5036607;28;20364;-74
2021/01/27 12:00:41;;;;;;;4.65;2.47;;;2.40;77.40;;;;;;5039268;28;20032;-74
2021/01/27 12:03:06;;;;;;;5.38;1.92;;;2.70;75.90;;;;;;5057542;28;20028;-74
2021/01/27 12:05:33;;;;;;;8.52;2.83;;;2.90;74.10;;;;;;5057018;28;20545;-74
2021/01/27 12:08:00;;;;;;;7.30;2.00;;;3.10;75.10;;;;;;5042209;28;20102;-74
2021/01/27 12:10:26;;;;;;;8.20;2.60;;;3.20;73.20;;;;;;5058776;28;20028;-74
2021/01/27 12:12:52;;;;;;;6.25;3.15;;;3.50;74.90;;;;;;5065220;28;20478;-74
2021/01/27 12:15:18;;;;;;;7.80;2.75;;;3.50;71.70;;;;;;5030506;28;20665;-74
2021/01/27 12:17:43;;;;;;;15.93;3.30;;;3.50;70.10;;;;;;5060610;28;20105;-74
2021/01/27 12:20:10;;;;;;;12.95;2.38;;;3.40;71.30;;;;;;5058783;28;20344;-74
2021/01/27 12:22:36;;;;;;;19.85;1.85;;;3.10;70.60;;;;;;5066069;28;20021;-74
2021/01/27 12:25:02;;;;;;;2.78;1.48;;;2.80;70.20;;;;;;5062597;28;20035;-74
2021/01/27 12:27:28;;;;;;;30.77;2.75;;;2.50;70.40;;;;;;5056554;28;20467;-74
2021/01/27 12:29:54;;;;;;;16.60;2.35;;;2.10;70.90;;;;;;5058623;28;20064;-74
2021/01/27 12:32:20;;;;;;;11.90;2.22;;;2.10;73.30;;;;;;5060637;28;20032;-74
2021/01/27 12:34:45;;;;;;;20.85;2.67;;;2.20;73.70;;;;;;5060469;28;20407;-74
2021/01/27 12:37:12;;;;;;;23.27;2.90;;;2.40;74.70;;;;;;5044095;28;20035;-74
2021/01/27 12:39:38;;;;;;;20.60;3.80;;;2.50;73.30;;;;;;5057218;28;20033;-74
2021/01/27 12:42:05;;;;;;;6.63;2.60;;;2.40;73.40;;;;;;5044315;28;20029;-74
2021/01/27 12:44:30;;;;;;;17.05;2.83;;;2.40;73.30;;;;;;5062286;28;20036;-74
2021/01/27 12:46:56;;;;;;;33.15;3.53;;;2.20;73.00;;;;;;5063543;28;20029;-74
2021/01/27 12:49:22;;;;;;;78.05;7.60;;;2.30;74.70;;;;;;5067308;28;20031;-74
2021/01/27 12:51:48;;;;;;;36.72;4.70;;;2.30;74.50;;;;;;5066744;28;20069;-74
2021/01/27 12:54:14;;;;;;;18.75;3.05;;;2.40;75.30;;;;;;5066751;28;20025;-73
2021/01/27 12:56:39;;;;;;;14.10;2.58;;;2.30;76.00;;;;;;5043846;28;20123;-74
2021/01/27 12:59:05;;;;;;;2.70;2.17;;;2.20;74.30;;;;;;5056505;28;20624;-74
2021/01/27 13:01:31;;;;;;;13.65;2.63;;;2.10;73.70;;;;;;5038345;28;20078;-75
2021/01/27 13:03:56;;;;;;;13.50;2.67;;;2.00;76.90;;;;;;5043568;28;20546;-75
2021/01/27 13:06:22;;;;;;;14.13;2.55;;;2.00;75.20;;;;;;5046890;28;20110;-75
2021/01/27 13:08:48;;;;;;;4.38;2.50;;;2.10;76.50;;;;;;5034923;28;20020;-75
2021/01/27 13:11:13;;;;;;;14.73;2.40;;;2.30;75.20;;;;;;5056127;28;20028;-75
2021/01/27 13:13:39;;;;;;;9.40;2.90;;;2.50;76.30;;;;;;5059639;28;20307;-75
2021/01/27 13:16:05;;;;;;;8.13;2.58;;;2.60;75.50;;;;;;5060970;28;20388;-74
2021/01/27 13:18:31;;;;;;;11.02;2.15;;;2.60;75.20;;;;;;5059853;28;20028;-75
2021/01/27 13:20:57;;;;;;;15.98;2.13;;;2.60;75.20;;;;;;5044358;28;20108;-74